createdAt,value
2023-05-26T00:00:16.964Z,99.90
2023-05-26T00:02:47.366Z,99.90
2023-05-26T00:05:18.004Z,99.90
2023-05-26T00:07:46.008Z,99.90
2023-05-26T00:10:14.177Z,99.90
2023-05-26T00:12:42.611Z,99.90
2023-05-26T00:15:11.421Z,99.90
2023-05-26T00:17:39.416Z,99.90
2023-05-26T00:20:12.022Z,99.90
2023-05-26T00:22:40.126Z,99.90
2023-05-26T00:25:09.034Z,99.90
2023-05-26T00:27:37.086Z,99.90
2023-05-26T00:30:05.443Z,99.90
2023-05-26T00:32:33.381Z,99.90
2023-05-26T00:35:01.385Z,99.90
2023-05-26T00:37:31.115Z,99.90
2023-05-26T00:39:59.211Z,99.90
2023-05-26T00:42:27.169Z,99.90
2023-05-26T00:44:55.346Z,99.90
2023-05-26T00:47:23.360Z,99.90
2023-05-26T00:49:51.551Z,99.90
2023-05-26T00:52:20.362Z,99.90
2023-05-26T00:54:50.743Z,99.90
2023-05-26T00:57:18.929Z,99.90
2023-05-26T00:59:47.089Z,99.90
2023-05-26T01:02:16.143Z,99.90
2023-05-26T01:04:44.309Z,99.90
2023-05-26T01:07:12.240Z,99.90
2023-05-26T01:09:40.407Z,99.90
2023-05-26T01:12:13.205Z,99.90
2023-05-26T01:14:52.571Z,99.90
2023-05-26T01:17:24.738Z,99.90
2023-05-26T01:20:09.200Z,99.90
2023-05-26T01:23:08.781Z,99.90
2023-05-26T01:25:47.814Z,99.90
2023-05-26T01:28:21.356Z,99.90
2023-05-26T01:30:51.008Z,99.90
2023-05-26T01:33:19.157Z,99.90
2023-05-26T01:35:47.789Z,99.90
2023-05-26T01:38:16.173Z,99.90
2023-05-26T01:40:45.665Z,99.90
2023-05-26T01:43:20.341Z,99.90
2023-05-26T01:45:57.836Z,99.90
2023-05-26T01:48:25.897Z,99.90
2023-05-26T01:50:56.682Z,99.90
2023-05-26T01:53:28.874Z,99.90
2023-05-26T01:55:59.608Z,99.90
2023-05-26T01:58:28.669Z,99.90
2023-05-26T02:01:00.022Z,99.90
2023-05-26T02:03:28.053Z,99.90
2023-05-26T02:05:56.155Z,99.90
2023-05-26T02:08:24.141Z,99.90
2023-05-26T02:10:52.240Z,99.90
2023-05-26T02:13:20.226Z,99.90
2023-05-26T02:15:48.480Z,99.90
2023-05-26T02:18:17.806Z,99.90
2023-05-26T02:20:45.885Z,99.90
2023-05-26T02:23:13.852Z,99.90
2023-05-26T02:25:41.904Z,99.90
2023-05-26T02:28:09.806Z,99.90
2023-05-26T02:30:37.668Z,99.90
2023-05-26T02:33:07.035Z,99.90
2023-05-26T02:35:36.374Z,99.90
2023-05-26T02:38:04.300Z,99.90
2023-05-26T02:40:32.228Z,99.90
2023-05-26T02:43:00.187Z,99.90
2023-05-26T02:45:28.093Z,99.90
2023-05-26T02:47:56.085Z,99.90
2023-05-26T02:50:24.447Z,99.90
2023-05-26T02:52:53.786Z,99.90
2023-05-26T02:55:22.723Z,99.90
2023-05-26T02:57:50.767Z,99.90
2023-05-26T03:00:19.850Z,99.90
2023-05-26T03:02:47.849Z,99.90
2023-05-26T03:05:15.824Z,99.90
2023-05-26T03:07:43.832Z,99.90
2023-05-26T03:10:13.322Z,99.90
2023-05-26T03:12:41.336Z,99.90
2023-05-26T03:15:12.658Z,99.90
2023-05-26T03:17:40.685Z,99.90
2023-05-26T03:20:09.516Z,99.90
2023-05-26T03:22:42.583Z,99.90
2023-05-26T03:25:17.870Z,99.90
2023-05-26T03:27:45.789Z,99.90
2023-05-26T03:30:14.267Z,99.90
2023-05-26T03:32:42.346Z,99.90
2023-05-26T03:35:10.612Z,99.90
2023-05-26T03:37:38.583Z,99.90
2023-05-26T03:40:07.781Z,99.90
2023-05-26T03:42:37.216Z,99.90
2023-05-26T03:45:05.739Z,99.90
2023-05-26T03:47:33.827Z,99.90
2023-05-26T03:50:03.626Z,99.90
2023-05-26T03:52:33.441Z,99.90
2023-05-26T03:55:01.396Z,99.90
2023-05-26T03:57:29.365Z,99.90
2023-05-26T03:59:58.707Z,99.90
2023-05-26T04:02:26.703Z,99.90
2023-05-26T04:04:54.703Z,99.90
2023-05-26T04:07:22.731Z,99.90
2023-05-26T04:09:50.750Z,99.90
2023-05-26T04:12:18.885Z,99.90
2023-05-26T04:14:47.043Z,99.90
2023-05-26T04:17:16.356Z,99.90
2023-05-26T04:19:44.317Z,99.90
2023-05-26T04:22:13.444Z,99.90
2023-05-26T04:24:41.766Z,99.90
2023-05-26T04:27:10.648Z,99.90
2023-05-26T04:29:39.784Z,99.90
2023-05-26T04:32:09.627Z,99.90
2023-05-26T04:34:39.088Z,99.90
2023-05-26T04:37:09.439Z,99.90
2023-05-26T04:39:37.435Z,99.90
2023-05-26T04:42:05.905Z,99.90
2023-05-26T04:44:33.874Z,99.90
2023-05-26T04:47:03.336Z,99.90
2023-05-26T04:49:31.569Z,99.90
2023-05-26T04:52:03.333Z,99.90
2023-05-26T04:54:31.440Z,99.90
2023-05-26T04:56:59.379Z,99.90
2023-05-26T04:59:27.465Z,99.90
2023-05-26T05:01:55.501Z,99.90
2023-05-26T05:04:23.457Z,99.90
2023-05-26T05:06:51.410Z,99.90
2023-05-26T05:09:20.701Z,99.90
2023-05-26T05:11:48.870Z,99.90
2023-05-26T05:14:18.357Z,99.90
2023-05-26T05:16:48.060Z,99.90
2023-05-26T05:19:16.233Z,99.90
2023-05-26T05:21:44.268Z,99.90
2023-05-26T05:24:12.435Z,99.90
2023-05-26T05:26:41.870Z,99.90
2023-05-26T05:29:09.990Z,99.90
2023-05-26T05:31:38.114Z,99.90
2023-05-26T05:34:06.076Z,99.90
2023-05-26T05:36:34.351Z,99.90
2023-05-26T05:39:02.357Z,99.90
2023-05-26T05:41:30.809Z,99.90
2023-05-26T05:44:00.196Z,99.90
2023-05-26T05:46:28.812Z,99.90
2023-05-26T05:48:56.943Z,99.90
2023-05-26T05:51:24.866Z,99.90
2023-05-26T05:53:52.782Z,99.90
2023-05-26T05:56:20.771Z,99.90
2023-05-26T05:58:48.703Z,99.90
2023-05-26T06:01:18.061Z,99.90
2023-05-26T06:03:46.038Z,99.90
2023-05-26T06:06:14.020Z,99.90
2023-05-26T06:08:42.006Z,99.90
2023-05-26T06:11:10.019Z,99.90
2023-05-26T06:13:38.039Z,99.90
2023-05-26T06:16:06.796Z,99.90
2023-05-26T06:18:36.114Z,99.90
2023-05-26T06:21:04.167Z,99.90
2023-05-26T06:23:32.195Z,99.90
2023-05-26T06:26:00.124Z,99.90
2023-05-26T06:28:28.110Z,99.90
2023-05-26T06:30:56.176Z,99.90
2023-05-26T06:33:24.348Z,99.90
2023-05-26T06:35:53.786Z,99.90
2023-05-26T06:38:21.720Z,99.90
2023-05-26T06:40:49.603Z,99.90
2023-05-26T06:43:17.594Z,99.90
2023-05-26T06:45:45.489Z,99.90
2023-05-26T06:48:13.473Z,99.90
2023-05-26T06:50:42.661Z,99.90
2023-05-26T06:53:12.014Z,99.90
2023-05-26T06:55:39.886Z,99.90
2023-05-26T06:58:07.865Z,99.90
2023-05-26T07:00:35.859Z,99.90
2023-05-26T07:03:04.111Z,99.90
2023-05-26T07:05:32.278Z,99.90
2023-05-26T07:08:00.289Z,99.90
2023-05-26T07:10:29.675Z,99.90
2023-05-26T07:12:57.846Z,99.90
2023-05-26T07:15:26.541Z,99.90
2023-05-26T07:17:54.700Z,99.90
2023-05-26T07:20:23.039Z,99.90
2023-05-26T07:22:51.140Z,99.90
2023-05-26T07:25:19.163Z,99.90
2023-05-26T07:27:48.533Z,99.90
2023-05-26T07:30:17.095Z,99.90
2023-05-26T07:32:45.202Z,99.90
2023-05-26T07:35:14.709Z,99.90
2023-05-26T07:37:42.942Z,99.90
2023-05-26T07:40:11.700Z,99.90
2023-05-26T07:42:39.799Z,99.90
2023-05-26T07:45:10.567Z,99.90
2023-05-26T07:47:38.645Z,99.90
2023-05-26T07:50:08.460Z,99.90
2023-05-26T07:52:36.916Z,99.90
2023-05-26T07:55:05.102Z,99.90
2023-05-26T07:57:33.070Z,99.90
2023-05-26T08:00:01.339Z,99.90
2023-05-26T08:02:33.972Z,99.90
2023-05-26T08:05:02.116Z,99.90
2023-05-26T08:07:30.126Z,99.90
2023-05-26T08:09:58.204Z,99.90
2023-05-26T08:12:26.181Z,99.90
2023-05-26T08:14:56.000Z,99.90
2023-05-26T08:17:24.102Z,99.90
2023-05-26T08:19:53.651Z,99.90
2023-05-26T08:22:21.849Z,99.90
2023-05-26T08:24:49.825Z,99.90
2023-05-26T08:27:17.760Z,99.90
2023-05-26T08:29:45.692Z,99.90
2023-05-26T08:32:13.845Z,99.90
2023-05-26T08:34:43.672Z,99.90
2023-05-26T08:37:14.483Z,99.90
2023-05-26T08:39:42.854Z,99.90
2023-05-26T08:42:16.602Z,99.90
2023-05-26T08:44:45.770Z,99.90
2023-05-26T08:47:14.486Z,99.90
2023-05-26T08:49:47.572Z,99.90
2023-05-26T08:52:19.596Z,99.90
2023-05-26T08:54:47.718Z,99.90
2023-05-26T08:57:16.026Z,99.90
2023-05-26T08:59:47.831Z,99.90
2023-05-26T09:02:16.263Z,99.90
2023-05-26T09:04:44.232Z,99.90
2023-05-26T09:09:44.584Z,99.90
2023-05-26T09:12:13.870Z,99.90
2023-05-26T09:14:43.498Z,99.90
2023-05-26T09:17:15.425Z,99.90
2023-05-26T09:19:43.545Z,99.90
2023-05-26T09:22:12.653Z,99.90
2023-05-26T09:24:51.448Z,99.90
2023-05-26T09:27:21.021Z,99.90
2023-05-26T09:29:56.382Z,99.90
2023-05-26T09:32:27.911Z,99.00
2023-05-26T09:34:58.018Z,98.90
2023-05-26T09:37:30.334Z,98.50
2023-05-26T09:40:09.320Z,98.60
2023-05-26T09:42:38.929Z,97.70
2023-05-26T09:45:07.325Z,97.40
2023-05-26T09:47:37.482Z,98.20
2023-05-26T09:50:08.111Z,96.90
2023-05-26T09:52:37.411Z,98.50
2023-05-26T09:55:08.164Z,97.60
2023-05-26T09:57:39.519Z,96.00
2023-05-26T10:00:11.756Z,95.40
2023-05-26T10:02:43.612Z,94.60
2023-05-26T10:05:13.295Z,94.50
2023-05-26T10:07:43.317Z,95.20
2023-05-26T10:10:15.808Z,94.90
2023-05-26T10:12:44.589Z,95.20
2023-05-26T10:15:12.966Z,92.80
2023-05-26T10:17:41.469Z,94.40
2023-05-26T10:20:10.425Z,94.10
2023-05-26T10:22:46.609Z,93.30
2023-05-26T10:25:22.637Z,92.30
2023-05-26T10:27:58.285Z,91.90
2023-05-26T10:30:28.860Z,92.80
2023-05-26T10:32:58.629Z,94.10
2023-05-26T10:35:32.094Z,93.40
2023-05-26T10:38:13.953Z,92.60
2023-05-26T10:40:45.830Z,92.70
2023-05-26T10:43:15.946Z,92.20
2023-05-26T10:45:48.657Z,91.80
2023-05-26T10:48:19.368Z,91.70
2023-05-26T10:51:07.801Z,91.30
2023-05-26T10:53:37.272Z,92.70
2023-05-26T10:56:09.675Z,92.20
2023-05-26T10:58:39.893Z,91.90
2023-05-26T11:01:11.158Z,91.40
2023-05-26T11:03:44.694Z,88.90
2023-05-26T11:06:15.889Z,90.10
2023-05-26T11:08:47.582Z,86.70
2023-05-26T11:11:28.824Z,85.50
2023-05-26T11:14:05.564Z,86.30
2023-05-26T11:16:36.967Z,79.70
2023-05-26T11:19:08.062Z,79.60
2023-05-26T11:21:37.218Z,78.60
2023-05-26T11:24:06.760Z,77.20
2023-05-26T11:26:36.840Z,78.30
2023-05-26T11:29:06.554Z,80.50
2023-05-26T11:31:34.852Z,81.60
2023-05-26T11:34:03.363Z,79.60
2023-05-26T11:36:32.139Z,77.60
2023-05-26T11:39:01.626Z,80.20
2023-05-26T11:41:30.838Z,76.60
2023-05-26T11:44:00.804Z,77.30
2023-05-26T11:46:31.315Z,76.60
2023-05-26T11:49:00.945Z,79.40
2023-05-26T11:51:29.002Z,77.60
2023-05-26T11:54:00.207Z,75.70
2023-05-26T11:56:34.516Z,75.10
2023-05-26T11:59:04.600Z,75.30
2023-05-26T12:01:33.394Z,72.40
2023-05-26T12:04:02.639Z,71.40
2023-05-26T12:06:32.891Z,72.90
2023-05-26T12:09:03.987Z,72.80
2023-05-26T12:11:33.881Z,72.90
2023-05-26T12:14:05.127Z,70.70
2023-05-26T12:16:35.423Z,69.00
2023-05-26T12:19:05.794Z,70.40
2023-05-26T12:21:42.195Z,67.50
2023-05-26T12:24:10.496Z,67.80
2023-05-26T12:26:39.566Z,65.90
2023-05-26T12:29:17.029Z,65.60
2023-05-26T12:31:47.122Z,68.70
2023-05-26T12:34:17.468Z,68.70
2023-05-26T12:36:45.650Z,69.30
2023-05-26T12:39:15.084Z,66.90
2023-05-26T12:41:43.565Z,66.40
2023-05-26T12:44:11.502Z,70.70
2023-05-26T12:46:42.460Z,65.50
2023-05-26T12:49:11.202Z,66.40
2023-05-26T12:51:40.950Z,63.90
2023-05-26T12:54:11.253Z,64.70
2023-05-26T12:56:40.305Z,64.20
2023-05-26T12:59:19.378Z,64.20
2023-05-26T13:01:50.196Z,62.50
2023-05-26T13:04:19.884Z,64.10
2023-05-26T13:06:52.453Z,65.10
2023-05-26T13:09:20.806Z,62.60
2023-05-26T13:11:48.877Z,67.50
2023-05-26T13:14:18.278Z,65.00
2023-05-26T13:16:47.351Z,65.10
2023-05-26T13:19:17.796Z,62.30
2023-05-26T13:21:46.388Z,60.40
2023-05-26T13:24:14.466Z,62.80
2023-05-26T13:26:43.092Z,61.10
2023-05-26T13:29:11.792Z,62.50
2023-05-26T13:31:40.558Z,62.50
2023-05-26T13:34:08.836Z,62.70
2023-05-26T13:36:44.852Z,62.00
2023-05-26T13:39:22.845Z,62.60
2023-05-26T13:41:54.243Z,60.50
2023-05-26T13:44:22.407Z,61.40
2023-05-26T13:46:50.817Z,59.40
2023-05-26T13:49:21.083Z,60.30
2023-05-26T13:51:50.759Z,60.20
2023-05-26T13:54:18.717Z,58.90
2023-05-26T13:56:47.469Z,59.00
2023-05-26T13:59:15.875Z,58.40
2023-05-26T14:01:46.609Z,59.10
2023-05-26T14:04:15.033Z,59.50
2023-05-26T14:06:43.053Z,59.20
2023-05-26T14:09:13.151Z,57.50
2023-05-26T14:11:45.214Z,58.70
2023-05-26T14:14:16.001Z,58.60
2023-05-26T14:19:37.096Z,59.10
2023-05-26T14:22:17.808Z,60.00
2023-05-26T14:25:12.373Z,58.90
2023-05-26T14:27:43.262Z,59.90
2023-05-26T14:30:12.439Z,59.30
2023-05-26T14:32:54.685Z,60.40
2023-05-26T14:35:33.317Z,58.50
2023-05-26T14:38:01.422Z,59.70
2023-05-26T14:40:32.594Z,57.70
2023-05-26T14:43:00.944Z,56.70
2023-05-26T14:45:29.261Z,57.30
2023-05-26T14:47:57.602Z,57.70
2023-05-26T14:50:25.827Z,56.40
2023-05-26T14:52:53.811Z,57.40
2023-05-26T14:57:53.790Z,57.70
2023-05-26T15:00:24.322Z,56.50
2023-05-26T15:02:54.644Z,57.90
2023-05-26T15:05:22.772Z,58.40
2023-05-26T15:07:58.108Z,57.60
2023-05-26T15:10:35.032Z,57.40
2023-05-26T15:13:05.582Z,56.60
2023-05-26T15:15:39.179Z,57.40
2023-05-26T15:18:09.288Z,57.20
2023-05-26T15:21:26.044Z,57.00
2023-05-26T15:23:27.340Z,57.30
2023-05-26T15:25:55.460Z,58.20
2023-05-26T15:28:26.345Z,58.60
2023-05-26T15:30:54.630Z,57.70
2023-05-26T15:33:23.387Z,56.70
2023-05-26T15:35:52.065Z,58.40
2023-05-26T15:38:20.584Z,56.40
2023-05-26T15:40:48.997Z,56.90
2023-05-26T15:43:17.086Z,57.60
2023-05-26T15:45:46.498Z,57.80
2023-05-26T15:48:17.577Z,58.00
2023-05-26T15:50:45.765Z,57.90
2023-05-26T15:53:13.771Z,58.60
2023-05-26T15:55:41.769Z,56.90
2023-05-26T15:58:09.788Z,57.10
2023-05-26T16:00:38.044Z,59.40
2023-05-26T16:03:07.458Z,58.60
2023-05-26T16:05:35.479Z,58.60
2023-05-26T16:08:03.661Z,58.40
2023-05-26T16:10:33.239Z,58.30
2023-05-26T16:13:01.291Z,57.70
2023-05-26T16:15:29.318Z,57.70
2023-05-26T16:17:57.334Z,59.30
2023-05-26T16:20:26.789Z,59.00
2023-05-26T16:22:54.870Z,58.90
2023-05-26T16:25:22.745Z,58.80
2023-05-26T16:27:50.722Z,59.40
2023-05-26T16:30:19.007Z,60.60
2023-05-26T16:32:47.035Z,59.70
2023-05-26T16:35:15.250Z,61.00
2023-05-26T16:37:45.360Z,60.00
2023-05-26T16:40:14.080Z,59.80
2023-05-26T16:42:42.346Z,59.90
2023-05-26T16:45:11.205Z,58.90
2023-05-26T16:47:39.213Z,60.00
2023-05-26T16:50:07.996Z,58.90
2023-05-26T16:52:36.174Z,58.20
2023-05-26T16:55:08.047Z,57.20
2023-05-26T16:57:36.238Z,58.20
2023-05-26T17:00:05.109Z,57.90
2023-05-26T17:02:33.355Z,56.80
2023-05-26T17:05:03.979Z,57.00
2023-05-26T17:07:32.103Z,56.00
2023-05-26T17:10:00.301Z,56.90
2023-05-26T17:12:29.575Z,56.30
2023-05-26T17:14:57.511Z,56.60
2023-05-26T17:17:25.634Z,56.90
2023-05-26T17:19:53.626Z,55.80
2023-05-26T17:22:22.046Z,57.30
2023-05-26T17:24:49.973Z,55.50
2023-05-26T17:27:18.024Z,55.10
2023-05-26T17:29:47.488Z,55.80
2023-05-26T17:32:18.219Z,54.70
2023-05-26T17:34:46.586Z,55.90
2023-05-26T17:37:15.477Z,55.10
2023-05-26T17:39:44.326Z,55.00
2023-05-26T17:42:12.596Z,54.90
2023-05-26T17:44:40.508Z,55.20
2023-05-26T17:47:09.811Z,56.80
2023-05-26T17:49:38.535Z,57.30
2023-05-26T17:52:06.962Z,57.90
2023-05-26T17:54:34.940Z,59.80
2023-05-26T17:57:03.366Z,60.80
2023-05-26T17:59:31.657Z,63.00
2023-05-26T18:01:59.711Z,63.00
2023-05-26T18:04:29.053Z,63.60
2023-05-26T18:06:57.299Z,65.60
2023-05-26T18:09:25.247Z,67.30
2023-05-26T18:11:53.169Z,69.10
2023-05-26T18:14:21.166Z,65.30
2023-05-26T18:16:49.457Z,65.20
2023-05-26T18:19:17.519Z,67.60
2023-05-26T18:21:46.826Z,67.20
2023-05-26T18:24:14.872Z,69.30
2023-05-26T18:26:42.822Z,68.80
2023-05-26T18:29:10.772Z,68.90
2023-05-26T18:31:39.148Z,68.80
2023-05-26T18:34:20.308Z,68.30
2023-05-26T18:36:53.069Z,70.10
2023-05-26T18:39:21.018Z,69.10
2023-05-26T18:41:49.104Z,69.20
2023-05-26T18:44:17.584Z,71.00
2023-05-26T18:46:45.940Z,72.20
2023-05-26T18:49:15.564Z,73.70
2023-05-26T18:51:43.716Z,73.60
2023-05-26T18:54:21.639Z,73.50
2023-05-26T18:56:49.681Z,72.50
2023-05-26T18:59:17.970Z,73.70
2023-05-26T19:01:45.992Z,74.50
2023-05-26T19:04:16.259Z,74.80
2023-05-26T19:06:44.458Z,76.10
2023-05-26T19:09:14.016Z,78.50
2023-05-26T19:11:42.706Z,80.60
2023-05-26T19:14:10.808Z,82.20
2023-05-26T19:16:38.957Z,84.40
2023-05-26T19:19:07.122Z,85.50
2023-05-26T19:21:36.674Z,83.10
2023-05-26T19:24:07.138Z,87.00
2023-05-26T19:26:36.860Z,86.00
2023-05-26T19:29:05.887Z,84.60
2023-05-26T19:31:34.870Z,88.10
2023-05-26T19:34:03.513Z,90.50
2023-05-26T19:36:39.354Z,91.30
2023-05-26T19:39:08.391Z,90.20
2023-05-26T19:41:37.885Z,91.20
2023-05-26T19:44:07.129Z,91.00
2023-05-26T19:46:35.438Z,91.60
2023-05-26T19:49:05.301Z,92.00
2023-05-26T19:51:33.660Z,92.20
2023-05-26T19:54:01.763Z,92.50
2023-05-26T19:56:30.103Z,93.40
2023-05-26T19:58:59.692Z,94.10
2023-05-26T20:01:27.738Z,94.60
2023-05-26T20:03:56.305Z,95.30
2023-05-26T20:06:24.755Z,95.60
2023-05-26T20:08:53.077Z,95.80
2023-05-26T20:11:22.447Z,95.80
2023-05-26T20:13:51.044Z,96.40
2023-05-26T20:16:21.881Z,96.20
2023-05-26T20:18:49.922Z,96.90
2023-05-26T20:21:17.992Z,97.00
2023-05-26T20:23:46.093Z,97.00
2023-05-26T20:26:14.049Z,97.10
2023-05-26T20:28:42.336Z,97.20
2023-05-26T20:31:18.130Z,97.40
2023-05-26T20:33:49.386Z,96.30
2023-05-26T20:36:19.708Z,96.30
2023-05-26T20:38:52.598Z,96.00
2023-05-26T20:41:21.670Z,95.30
2023-05-26T20:43:49.986Z,94.10
2023-05-26T20:46:18.079Z,95.10
2023-05-26T20:48:48.202Z,94.90
2023-05-26T20:51:18.276Z,94.60
2023-05-26T20:53:47.736Z,94.70
2023-05-26T20:56:15.924Z,94.40
2023-05-26T20:58:43.899Z,93.70
2023-05-26T21:01:12.416Z,93.40
2023-05-26T21:03:40.662Z,92.70
2023-05-26T21:06:08.881Z,92.20
2023-05-26T21:08:38.365Z,92.70
2023-05-26T21:11:06.419Z,92.60
2023-05-26T21:13:34.666Z,92.00
2023-05-26T21:16:02.960Z,91.10
2023-05-26T21:18:33.784Z,90.90
2023-05-26T21:21:02.037Z,91.70
2023-05-26T21:23:30.030Z,91.70
2023-05-26T21:25:59.657Z,91.90
2023-05-26T21:28:27.748Z,90.70
2023-05-26T21:30:59.056Z,89.80
2023-05-26T21:33:26.996Z,90.20
2023-05-26T21:35:55.316Z,90.10
2023-05-26T21:38:23.342Z,87.80
2023-05-26T21:40:51.440Z,87.40
2023-05-26T21:43:20.884Z,87.20
2023-05-26T21:45:49.190Z,87.80
2023-05-26T21:48:17.703Z,85.80
2023-05-26T21:50:45.760Z,85.80
2023-05-26T21:53:13.868Z,85.60
2023-05-26T21:55:41.875Z,84.80
2023-05-26T21:58:10.193Z,84.10
2023-05-26T22:00:39.709Z,84.90
2023-05-26T22:03:08.089Z,84.80
2023-05-26T22:05:36.274Z,84.90
2023-05-26T22:08:04.310Z,84.20
2023-05-26T22:10:32.733Z,83.40
2023-05-26T22:13:00.698Z,84.40
2023-05-26T22:15:29.679Z,84.30
2023-05-26T22:17:59.125Z,85.40
2023-05-26T22:20:27.284Z,85.50
2023-05-26T22:22:55.423Z,85.60
2023-05-26T22:25:23.701Z,85.50
2023-05-26T22:27:51.852Z,86.30
2023-05-26T22:30:24.472Z,86.10
2023-05-26T22:32:52.665Z,86.50
2023-05-26T22:35:22.128Z,87.60
2023-05-26T22:37:50.426Z,87.90
2023-05-26T22:40:18.501Z,89.10
2023-05-26T22:42:46.700Z,89.60
2023-05-26T22:45:14.713Z,88.60
2023-05-26T22:47:42.691Z,90.50
2023-05-26T22:50:11.417Z,90.00
2023-05-26T22:52:40.826Z,90.30
2023-05-26T22:55:09.510Z,90.50
2023-05-26T22:57:37.758Z,90.00
2023-05-26T23:00:06.564Z,90.40
2023-05-26T23:02:34.731Z,89.00
2023-05-26T23:05:02.824Z,91.00
2023-05-26T23:07:30.994Z,91.60
2023-05-26T23:10:02.510Z,91.50
2023-05-26T23:12:30.581Z,91.50
2023-05-26T23:14:58.708Z,91.10
2023-05-26T23:17:26.779Z,90.90
2023-05-26T23:19:54.882Z,90.30
2023-05-26T23:22:23.127Z,90.80
2023-05-26T23:24:51.146Z,90.60
2023-05-26T23:27:20.901Z,90.20
2023-05-26T23:29:48.937Z,91.10
2023-05-26T23:32:17.365Z,91.50
2023-05-26T23:34:45.768Z,90.90
2023-05-26T23:37:15.369Z,90.90
2023-05-26T23:39:43.385Z,90.10
2023-05-26T23:42:11.424Z,88.40
2023-05-26T23:44:41.594Z,89.70
2023-05-26T23:47:10.455Z,88.80
2023-05-26T23:49:38.460Z,88.50
2023-05-26T23:52:07.134Z,90.30
2023-05-26T23:54:35.187Z,89.40
2023-05-26T23:57:03.246Z,89.60
2023-05-26T23:59:31.546Z,90.60
